sensor_id;sensor_type;location;lat;lon;timestamp;P1;durP1;ratioP1;P2;durP2;ratioP2
5608;SDS011;2826;51.354;9.588;2023-02-28T00:00:36;1.80;;;1.70;;
5608;SDS011;2826;51.354;9.588;2023-02-28T00:03:03;1.77;;;1.67;;
5608;SDS011;2826;51.354;9.588;2023-02-28T00:05:30;1.70;;;1.47;;
5608;SDS011;2826;51.354;9.588;2023-02-28T00:07:57;2.13;;;1.60;;
5608;SDS011;2826;51.354;9.588;2023-02-28T00:10:26;2.60;;;1.67;;
5608;SDS011;2826;51.354;9.588;2023-02-28T00:12:55;6.73;;;2.50;;
5608;SDS011;2826;51.354;9.588;2023-02-28T00:15:25;2.03;;;1.77;;
5608;SDS011;2826;51.354;9.588;2023-02-28T00:17:52;3.93;;;2.47;;
5608;SDS011;2826;51.354;9.588;2023-02-28T00:20:19;3.53;;;2.90;;
5608;SDS011;2826;51.354;9.588;2023-02-28T00:22:47;4.30;;;2.07;;
5608;SDS011;2826;51.354;9.588;2023-02-28T00:25:15;3.00;;;2.30;;
5608;SDS011;2826;51.354;9.588;2023-02-28T00:27:44;3.70;;;2.13;;
5608;SDS011;2826;51.354;9.588;2023-02-28T00:30:12;4.00;;;1.80;;
5608;SDS011;2826;51.354;9.588;2023-02-28T00:32:41;4.00;;;1.53;;
5608;SDS011;2826;51.354;9.588;2023-02-28T00:35:08;3.53;;;1.43;;
5608;SDS011;2826;51.354;9.588;2023-02-28T00:37:35;1.47;;;1.37;;
5608;SDS011;2826;51.354;9.588;2023-02-28T00:40:04;3.00;;;1.40;;
5608;SDS011;2826;51.354;9.588;2023-02-28T00:42:33;1.93;;;1.20;;
5608;SDS011;2826;51.354;9.588;2023-02-28T00:45:01;3.40;;;1.40;;
5608;SDS011;2826;51.354;9.588;2023-02-28T00:47:29;6.03;;;1.57;;
5608;SDS011;2826;51.354;9.588;2023-02-28T00:49:56;2.23;;;1.80;;
5608;SDS011;2826;51.354;9.588;2023-02-28T00:52:23;2.50;;;1.80;;
5608;SDS011;2826;51.354;9.588;2023-02-28T00:54:50;1.60;;;1.50;;
5608;SDS011;2826;51.354;9.588;2023-02-28T00:57:17;1.87;;;1.57;;
5608;SDS011;2826;51.354;9.588;2023-02-28T00:59:43;4.50;;;1.50;;
5608;SDS011;2826;51.354;9.588;2023-02-28T01:02:11;2.50;;;1.57;;
5608;SDS011;2826;51.354;9.588;2023-02-28T01:04:38;4.50;;;1.67;;
5608;SDS011;2826;51.354;9.588;2023-02-28T01:07:04;3.77;;;1.70;;
5608;SDS011;2826;51.354;9.588;2023-02-28T01:09:31;1.97;;;1.23;;
5608;SDS011;2826;51.354;9.588;2023-02-28T01:11:58;1.70;;;1.53;;
5608;SDS011;2826;51.354;9.588;2023-02-28T01:14:24;2.43;;;1.40;;
5608;SDS011;2826;51.354;9.588;2023-02-28T01:16:51;1.60;;;1.43;;
5608;SDS011;2826;51.354;9.588;2023-02-28T01:19:19;2.27;;;1.50;;
5608;SDS011;2826;51.354;9.588;2023-02-28T01:21:46;3.30;;;1.80;;
5608;SDS011;2826;51.354;9.588;2023-02-28T01:24:12;2.70;;;1.30;;
5608;SDS011;2826;51.354;9.588;2023-02-28T01:26:39;2.80;;;1.27;;
5608;SDS011;2826;51.354;9.588;2023-02-28T01:29:06;4.20;;;1.50;;
5608;SDS011;2826;51.354;9.588;2023-02-28T01:31:33;1.53;;;1.40;;
5608;SDS011;2826;51.354;9.588;2023-02-28T01:34:00;1.90;;;1.33;;
5608;SDS011;2826;51.354;9.588;2023-02-28T01:36:29;10.20;;;1.60;;
5608;SDS011;2826;51.354;9.588;2023-02-28T01:38:56;1.83;;;1.33;;
5608;SDS011;2826;51.354;9.588;2023-02-28T01:41:23;2.07;;;1.30;;
5608;SDS011;2826;51.354;9.588;2023-02-28T01:43:53;3.47;;;1.40;;
5608;SDS011;2826;51.354;9.588;2023-02-28T01:46:28;1.40;;;1.30;;
5608;SDS011;2826;51.354;9.588;2023-02-28T01:48:57;3.20;;;1.50;;
5608;SDS011;2826;51.354;9.588;2023-02-28T01:51:31;2.07;;;1.60;;
5608;SDS011;2826;51.354;9.588;2023-02-28T01:54:05;2.20;;;1.37;;
5608;SDS011;2826;51.354;9.588;2023-02-28T01:56:40;4.63;;;1.60;;
5608;SDS011;2826;51.354;9.588;2023-02-28T01:59:12;1.60;;;1.20;;
5608;SDS011;2826;51.354;9.588;2023-02-28T02:01:45;2.40;;;1.50;;
5608;SDS011;2826;51.354;9.588;2023-02-28T02:04:11;2.00;;;1.47;;
5608;SDS011;2826;51.354;9.588;2023-02-28T02:06:42;2.20;;;1.57;;
5608;SDS011;2826;51.354;9.588;2023-02-28T02:09:11;2.30;;;1.60;;
5608;SDS011;2826;51.354;9.588;2023-02-28T02:11:38;1.50;;;1.40;;
5608;SDS011;2826;51.354;9.588;2023-02-28T02:14:12;2.37;;;1.40;;
5608;SDS011;2826;51.354;9.588;2023-02-28T02:17:04;2.47;;;1.67;;
5608;SDS011;2826;51.354;9.588;2023-02-28T02:19:44;4.10;;;1.50;;
5608;SDS011;2826;51.354;9.588;2023-02-28T02:22:38;2.40;;;1.63;;
5608;SDS011;2826;51.354;9.588;2023-02-28T02:25:23;1.50;;;1.37;;
5608;SDS011;2826;51.354;9.588;2023-02-28T02:28:05;1.87;;;1.13;;
5608;SDS011;2826;51.354;9.588;2023-02-28T02:30:59;1.93;;;1.43;;
5608;SDS011;2826;51.354;9.588;2023-02-28T02:34:16;1.43;;;1.33;;
5608;SDS011;2826;51.354;9.588;2023-02-28T02:37:07;1.23;;;1.13;;
5608;SDS011;2826;51.354;9.588;2023-02-28T02:39:44;2.30;;;1.50;;
5608;SDS011;2826;51.354;9.588;2023-02-28T02:42:18;1.87;;;1.40;;
5608;SDS011;2826;51.354;9.588;2023-02-28T02:44:53;3.00;;;1.33;;
5608;SDS011;2826;51.354;9.588;2023-02-28T02:47:24;3.53;;;1.70;;
5608;SDS011;2826;51.354;9.588;2023-02-28T02:49:55;2.40;;;1.57;;
5608;SDS011;2826;51.354;9.588;2023-02-28T02:52:28;1.47;;;1.37;;
5608;SDS011;2826;51.354;9.588;2023-02-28T02:55:00;1.53;;;1.40;;
5608;SDS011;2826;51.354;9.588;2023-02-28T02:57:30;2.27;;;1.50;;
5608;SDS011;2826;51.354;9.588;2023-02-28T03:00:00;1.47;;;1.30;;
5608;SDS011;2826;51.354;9.588;2023-02-28T03:02:30;3.33;;;1.60;;
5608;SDS011;2826;51.354;9.588;2023-02-28T03:05:01;2.97;;;1.50;;
5608;SDS011;2826;51.354;9.588;2023-02-28T03:07:32;2.13;;;1.77;;
5608;SDS011;2826;51.354;9.588;2023-02-28T03:09:58;2.07;;;1.70;;
5608;SDS011;2826;51.354;9.588;2023-02-28T03:12:27;3.43;;;1.60;;
5608;SDS011;2826;51.354;9.588;2023-02-28T03:15:07;2.57;;;1.40;;
5608;SDS011;2826;51.354;9.588;2023-02-28T03:17:44;2.60;;;1.40;;
5608;SDS011;2826;51.354;9.588;2023-02-28T03:20:34;2.30;;;1.50;;
5608;SDS011;2826;51.354;9.588;2023-02-28T03:23:08;1.70;;;1.43;;
5608;SDS011;2826;51.354;9.588;2023-02-28T03:25:46;1.57;;;1.37;;
5608;SDS011;2826;51.354;9.588;2023-02-28T03:28:25;1.63;;;1.37;;
5608;SDS011;2826;51.354;9.588;2023-02-28T03:30:59;1.57;;;1.47;;
5608;SDS011;2826;51.354;9.588;2023-02-28T03:33:30;1.60;;;1.50;;
5608;SDS011;2826;51.354;9.588;2023-02-28T03:36:05;1.53;;;1.43;;
5608;SDS011;2826;51.354;9.588;2023-02-28T03:38:35;2.80;;;1.67;;
5608;SDS011;2826;51.354;9.588;2023-02-28T03:41:06;2.07;;;1.47;;
5608;SDS011;2826;51.354;9.588;2023-02-28T03:43:40;5.17;;;2.00;;
5608;SDS011;2826;51.354;9.588;2023-02-28T03:46:12;2.23;;;1.47;;
5608;SDS011;2826;51.354;9.588;2023-02-28T03:48:42;3.57;;;1.87;;
5608;SDS011;2826;51.354;9.588;2023-02-28T03:51:15;4.50;;;1.77;;
5608;SDS011;2826;51.354;9.588;2023-02-28T03:53:46;1.37;;;1.27;;
5608;SDS011;2826;51.354;9.588;2023-02-28T03:56:18;2.33;;;1.33;;
5608;SDS011;2826;51.354;9.588;2023-02-28T03:58:49;1.53;;;1.43;;
5608;SDS011;2826;51.354;9.588;2023-02-28T04:01:21;1.70;;;1.60;;
5608;SDS011;2826;51.354;9.588;2023-02-28T04:03:51;2.70;;;1.77;;
5608;SDS011;2826;51.354;9.588;2023-02-28T04:06:20;1.47;;;1.37;;
5608;SDS011;2826;51.354;9.588;2023-02-28T04:08:49;1.40;;;1.30;;
5608;SDS011;2826;51.354;9.588;2023-02-28T04:11:20;2.13;;;1.60;;
5608;SDS011;2826;51.354;9.588;2023-02-28T04:13:50;2.53;;;1.50;;
5608;SDS011;2826;51.354;9.588;2023-02-28T04:16:16;5.60;;;1.90;;
5608;SDS011;2826;51.354;9.588;2023-02-28T04:18:43;4.80;;;1.80;;
5608;SDS011;2826;51.354;9.588;2023-02-28T04:21:10;1.80;;;1.50;;
5608;SDS011;2826;51.354;9.588;2023-02-28T04:23:38;3.10;;;1.60;;
5608;SDS011;2826;51.354;9.588;2023-02-28T04:26:05;2.10;;;1.50;;
5608;SDS011;2826;51.354;9.588;2023-02-28T04:28:32;2.27;;;2.00;;
5608;SDS011;2826;51.354;9.588;2023-02-28T04:31:00;2.03;;;1.50;;
5608;SDS011;2826;51.354;9.588;2023-02-28T04:33:29;2.07;;;1.63;;
5608;SDS011;2826;51.354;9.588;2023-02-28T04:36:00;2.97;;;1.90;;
5608;SDS011;2826;51.354;9.588;2023-02-28T04:38:28;2.60;;;1.83;;
5608;SDS011;2826;51.354;9.588;2023-02-28T04:40:57;2.97;;;1.80;;
5608;SDS011;2826;51.354;9.588;2023-02-28T04:43:25;2.10;;;1.50;;
5608;SDS011;2826;51.354;9.588;2023-02-28T04:45:52;1.63;;;1.53;;
5608;SDS011;2826;51.354;9.588;2023-02-28T04:48:21;1.73;;;1.60;;
5608;SDS011;2826;51.354;9.588;2023-02-28T04:50:50;4.43;;;1.80;;
5608;SDS011;2826;51.354;9.588;2023-02-28T04:53:25;2.43;;;1.90;;
5608;SDS011;2826;51.354;9.588;2023-02-28T04:55:54;5.20;;;1.63;;
5608;SDS011;2826;51.354;9.588;2023-02-28T04:58:22;3.60;;;1.50;;
5608;SDS011;2826;51.354;9.588;2023-02-28T05:00:49;5.13;;;1.60;;
5608;SDS011;2826;51.354;9.588;2023-02-28T05:03:15;3.30;;;1.87;;
5608;SDS011;2826;51.354;9.588;2023-02-28T05:05:42;2.50;;;1.73;;
5608;SDS011;2826;51.354;9.588;2023-02-28T05:08:08;8.10;;;2.03;;
5608;SDS011;2826;51.354;9.588;2023-02-28T05:10:35;2.27;;;1.53;;
5608;SDS011;2826;51.354;9.588;2023-02-28T05:13:02;2.90;;;1.73;;
5608;SDS011;2826;51.354;9.588;2023-02-28T05:15:30;2.60;;;1.60;;
5608;SDS011;2826;51.354;9.588;2023-02-28T05:17:58;2.03;;;1.60;;
5608;SDS011;2826;51.354;9.588;2023-02-28T05:20:25;4.37;;;1.70;;
5608;SDS011;2826;51.354;9.588;2023-02-28T05:22:51;2.10;;;1.70;;
5608;SDS011;2826;51.354;9.588;2023-02-28T05:25:19;1.87;;;1.60;;
5608;SDS011;2826;51.354;9.588;2023-02-28T05:27:47;1.87;;;1.77;;
5608;SDS011;2826;51.354;9.588;2023-02-28T05:30:14;3.80;;;2.37;;
5608;SDS011;2826;51.354;9.588;2023-02-28T05:32:42;1.47;;;1.37;;
5608;SDS011;2826;51.354;9.588;2023-02-28T05:35:09;2.90;;;1.90;;
5608;SDS011;2826;51.354;9.588;2023-02-28T05:37:37;3.67;;;2.03;;
5608;SDS011;2826;51.354;9.588;2023-02-28T05:40:04;2.40;;;1.93;;
5608;SDS011;2826;51.354;9.588;2023-02-28T05:42:35;3.77;;;1.90;;
5608;SDS011;2826;51.354;9.588;2023-02-28T05:45:02;4.53;;;2.30;;
5608;SDS011;2826;51.354;9.588;2023-02-28T05:47:29;5.67;;;1.90;;
5608;SDS011;2826;51.354;9.588;2023-02-28T05:49:57;4.93;;;1.90;;
5608;SDS011;2826;51.354;9.588;2023-02-28T05:52:23;2.60;;;2.03;;
5608;SDS011;2826;51.354;9.588;2023-02-28T05:54:50;5.03;;;2.47;;
5608;SDS011;2826;51.354;9.588;2023-02-28T05:57:17;5.83;;;2.53;;
5608;SDS011;2826;51.354;9.588;2023-02-28T05:59:43;3.40;;;2.40;;
5608;SDS011;2826;51.354;9.588;2023-02-28T06:02:11;4.97;;;2.90;;
5608;SDS011;2826;51.354;9.588;2023-02-28T06:04:38;4.53;;;2.80;;
5608;SDS011;2826;51.354;9.588;2023-02-28T06:07:07;4.10;;;2.80;;
5608;SDS011;2826;51.354;9.588;2023-02-28T06:09:34;3.93;;;2.40;;
5608;SDS011;2826;51.354;9.588;2023-02-28T06:12:01;2.43;;;1.80;;
5608;SDS011;2826;51.354;9.588;2023-02-28T06:14:30;3.40;;;1.80;;
5608;SDS011;2826;51.354;9.588;2023-02-28T06:16:58;2.90;;;2.10;;
5608;SDS011;2826;51.354;9.588;2023-02-28T06:19:25;4.53;;;2.20;;
5608;SDS011;2826;51.354;9.588;2023-02-28T06:21:52;3.03;;;2.00;;
5608;SDS011;2826;51.354;9.588;2023-02-28T06:24:21;3.10;;;1.67;;
5608;SDS011;2826;51.354;9.588;2023-02-28T06:26:48;3.40;;;2.20;;
5608;SDS011;2826;51.354;9.588;2023-02-28T06:29:16;3.03;;;1.67;;
5608;SDS011;2826;51.354;9.588;2023-02-28T06:31:43;6.33;;;2.93;;
5608;SDS011;2826;51.354;9.588;2023-02-28T06:34:10;4.10;;;1.97;;
5608;SDS011;2826;51.354;9.588;2023-02-28T06:36:56;3.50;;;2.20;;
5608;SDS011;2826;51.354;9.588;2023-02-28T06:39:28;9.03;;;2.30;;
5608;SDS011;2826;51.354;9.588;2023-02-28T06:41:55;1.57;;;1.30;;
5608;SDS011;2826;51.354;9.588;2023-02-28T06:44:22;6.17;;;3.30;;
5608;SDS011;2826;51.354;9.588;2023-02-28T06:46:49;4.50;;;2.40;;
5608;SDS011;2826;51.354;9.588;2023-02-28T06:49:16;5.53;;;2.90;;
5608;SDS011;2826;51.354;9.588;2023-02-28T06:51:43;9.50;;;3.27;;
5608;SDS011;2826;51.354;9.588;2023-02-28T06:54:11;2.63;;;1.93;;
5608;SDS011;2826;51.354;9.588;2023-02-28T06:56:40;3.70;;;2.20;;
5608;SDS011;2826;51.354;9.588;2023-02-28T06:59:06;3.47;;;1.90;;
5608;SDS011;2826;51.354;9.588;2023-02-28T07:01:54;3.77;;;2.07;;
5608;SDS011;2826;51.354;9.588;2023-02-28T07:04:21;2.13;;;1.80;;
5608;SDS011;2826;51.354;9.588;2023-02-28T07:06:48;3.67;;;2.13;;
5608;SDS011;2826;51.354;9.588;2023-02-28T07:09:16;4.27;;;1.90;;
5608;SDS011;2826;51.354;9.588;2023-02-28T07:11:45;22.63;;;6.30;;
5608;SDS011;2826;51.354;9.588;2023-02-28T07:14:12;7.27;;;4.00;;
5608;SDS011;2826;51.354;9.588;2023-02-28T07:16:39;2.60;;;2.13;;
5608;SDS011;2826;51.354;9.588;2023-02-28T07:19:05;5.20;;;2.20;;
5608;SDS011;2826;51.354;9.588;2023-02-28T07:21:33;4.07;;;2.00;;
5608;SDS011;2826;51.354;9.588;2023-02-28T07:24:00;2.13;;;1.93;;
5608;SDS011;2826;51.354;9.588;2023-02-28T07:26:26;4.63;;;1.93;;
5608;SDS011;2826;51.354;9.588;2023-02-28T07:28:54;6.30;;;2.07;;
5608;SDS011;2826;51.354;9.588;2023-02-28T07:31:20;4.17;;;2.20;;
5608;SDS011;2826;51.354;9.588;2023-02-28T07:33:47;2.70;;;2.07;;
5608;SDS011;2826;51.354;9.588;2023-02-28T07:36:15;1.70;;;1.60;;
5608;SDS011;2826;51.354;9.588;2023-02-28T07:38:44;5.80;;;2.10;;
5608;SDS011;2826;51.354;9.588;2023-02-28T07:41:13;2.00;;;1.70;;
5608;SDS011;2826;51.354;9.588;2023-02-28T07:43:40;3.30;;;1.80;;
5608;SDS011;2826;51.354;9.588;2023-02-28T07:46:09;4.10;;;1.87;;
5608;SDS011;2826;51.354;9.588;2023-02-28T07:48:37;2.90;;;1.90;;
5608;SDS011;2826;51.354;9.588;2023-02-28T07:51:04;1.73;;;1.63;;
5608;SDS011;2826;51.354;9.588;2023-02-28T07:53:31;2.93;;;1.57;;
5608;SDS011;2826;51.354;9.588;2023-02-28T07:55:59;1.80;;;1.27;;
5608;SDS011;2826;51.354;9.588;2023-02-28T07:58:27;3.93;;;1.80;;
5608;SDS011;2826;51.354;9.588;2023-02-28T08:00:55;3.10;;;2.07;;
5608;SDS011;2826;51.354;9.588;2023-02-28T08:03:24;2.90;;;2.13;;
5608;SDS011;2826;51.354;9.588;2023-02-28T08:05:51;1.87;;;1.73;;
5608;SDS011;2826;51.354;9.588;2023-02-28T08:08:18;2.60;;;1.73;;
5608;SDS011;2826;51.354;9.588;2023-02-28T08:10:45;1.60;;;1.50;;
5608;SDS011;2826;51.354;9.588;2023-02-28T08:13:12;4.30;;;1.90;;
5608;SDS011;2826;51.354;9.588;2023-02-28T08:15:40;1.70;;;1.57;;
5608;SDS011;2826;51.354;9.588;2023-02-28T08:18:07;4.30;;;1.60;;
5608;SDS011;2826;51.354;9.588;2023-02-28T08:20:35;2.90;;;1.83;;
5608;SDS011;2826;51.354;9.588;2023-02-28T08:23:01;2.47;;;1.97;;
5608;SDS011;2826;51.354;9.588;2023-02-28T08:25:28;2.83;;;1.90;;
5608;SDS011;2826;51.354;9.588;2023-02-28T08:27:55;2.40;;;1.80;;
5608;SDS011;2826;51.354;9.588;2023-02-28T08:30:23;3.40;;;2.20;;
5608;SDS011;2826;51.354;9.588;2023-02-28T08:32:51;3.53;;;2.43;;
5608;SDS011;2826;51.354;9.588;2023-02-28T08:35:17;4.60;;;2.27;;
5608;SDS011;2826;51.354;9.588;2023-02-28T08:37:45;2.67;;;2.03;;
5608;SDS011;2826;51.354;9.588;2023-02-28T08:40:13;2.27;;;2.07;;
5608;SDS011;2826;51.354;9.588;2023-02-28T08:42:43;2.90;;;2.40;;
5608;SDS011;2826;51.354;9.588;2023-02-28T08:45:10;5.47;;;2.87;;
5608;SDS011;2826;51.354;9.588;2023-02-28T08:47:36;5.33;;;2.37;;
5608;SDS011;2826;51.354;9.588;2023-02-28T08:50:03;5.70;;;2.27;;
5608;SDS011;2826;51.354;9.588;2023-02-28T08:52:31;4.03;;;2.80;;
5608;SDS011;2826;51.354;9.588;2023-02-28T08:54:59;4.87;;;2.60;;
5608;SDS011;2826;51.354;9.588;2023-02-28T08:57:25;2.27;;;2.07;;
5608;SDS011;2826;51.354;9.588;2023-02-28T08:59:52;2.70;;;2.23;;
5608;SDS011;2826;51.354;9.588;2023-02-28T09:02:19;4.93;;;2.30;;
5608;SDS011;2826;51.354;9.588;2023-02-28T09:04:46;3.20;;;1.90;;
5608;SDS011;2826;51.354;9.588;2023-02-28T09:07:13;2.57;;;2.33;;
5608;SDS011;2826;51.354;9.588;2023-02-28T09:09:39;6.80;;;2.50;;
5608;SDS011;2826;51.354;9.588;2023-02-28T09:12:21;2.40;;;2.20;;
5608;SDS011;2826;51.354;9.588;2023-02-28T09:14:47;10.60;;;2.30;;
5608;SDS011;2826;51.354;9.588;2023-02-28T09:17:14;3.63;;;1.83;;
5608;SDS011;2826;51.354;9.588;2023-02-28T09:19:41;2.77;;;2.07;;
5608;SDS011;2826;51.354;9.588;2023-02-28T09:22:08;5.50;;;2.97;;
5608;SDS011;2826;51.354;9.588;2023-02-28T09:24:36;3.27;;;2.40;;
5608;SDS011;2826;51.354;9.588;2023-02-28T09:27:03;4.73;;;2.70;;
5608;SDS011;2826;51.354;9.588;2023-02-28T09:29:31;4.67;;;2.93;;
5608;SDS011;2826;51.354;9.588;2023-02-28T09:31:58;4.17;;;2.43;;
5608;SDS011;2826;51.354;9.588;2023-02-28T09:34:26;2.93;;;2.40;;
5608;SDS011;2826;51.354;9.588;2023-02-28T09:36:56;2.97;;;2.40;;
5608;SDS011;2826;51.354;9.588;2023-02-28T09:39:22;4.30;;;2.57;;
5608;SDS011;2826;51.354;9.588;2023-02-28T09:41:52;6.00;;;2.47;;
5608;SDS011;2826;51.354;9.588;2023-02-28T09:44:20;2.40;;;2.20;;
5608;SDS011;2826;51.354;9.588;2023-02-28T09:46:56;2.13;;;1.93;;
5608;SDS011;2826;51.354;9.588;2023-02-28T09:49:28;4.40;;;2.90;;
5608;SDS011;2826;51.354;9.588;2023-02-28T09:52:03;17.50;;;4.90;;
5608;SDS011;2826;51.354;9.588;2023-02-28T09:54:34;3.10;;;2.23;;
5608;SDS011;2826;51.354;9.588;2023-02-28T09:57:04;4.30;;;2.50;;
5608;SDS011;2826;51.354;9.588;2023-02-28T09:59:40;7.40;;;2.50;;
5608;SDS011;2826;51.354;9.588;2023-02-28T10:02:19;3.20;;;2.40;;
5608;SDS011;2826;51.354;9.588;2023-02-28T10:05:05;2.67;;;2.07;;
5608;SDS011;2826;51.354;9.588;2023-02-28T10:07:41;6.00;;;2.33;;
5608;SDS011;2826;51.354;9.588;2023-02-28T10:10:21;8.30;;;2.90;;
5608;SDS011;2826;51.354;9.588;2023-02-28T10:12:52;4.77;;;2.90;;
5608;SDS011;2826;51.354;9.588;2023-02-28T10:15:22;3.50;;;2.50;;
5608;SDS011;2826;51.354;9.588;2023-02-28T10:17:53;2.90;;;2.60;;
5608;SDS011;2826;51.354;9.588;2023-02-28T10:20:23;4.80;;;2.27;;
5608;SDS011;2826;51.354;9.588;2023-02-28T10:22:57;3.47;;;2.60;;
5608;SDS011;2826;51.354;9.588;2023-02-28T10:25:32;6.93;;;3.00;;
5608;SDS011;2826;51.354;9.588;2023-02-28T10:28:01;4.37;;;2.60;;
5608;SDS011;2826;51.354;9.588;2023-02-28T10:30:36;3.10;;;2.80;;
5608;SDS011;2826;51.354;9.588;2023-02-28T10:33:08;3.40;;;2.87;;
5608;SDS011;2826;51.354;9.588;2023-02-28T10:35:44;7.73;;;2.90;;
5608;SDS011;2826;51.354;9.588;2023-02-28T10:38:15;6.63;;;2.73;;
5608;SDS011;2826;51.354;9.588;2023-02-28T10:40:43;3.47;;;2.63;;
5608;SDS011;2826;51.354;9.588;2023-02-28T10:43:17;3.73;;;2.80;;
5608;SDS011;2826;51.354;9.588;2023-02-28T10:45:53;7.90;;;2.37;;
5608;SDS011;2826;51.354;9.588;2023-02-28T10:48:27;4.40;;;3.20;;
5608;SDS011;2826;51.354;9.588;2023-02-28T10:50:57;4.43;;;2.80;;
5608;SDS011;2826;51.354;9.588;2023-02-28T10:53:31;3.43;;;2.90;;
5608;SDS011;2826;51.354;9.588;2023-02-28T10:56:00;3.97;;;2.40;;
5608;SDS011;2826;51.354;9.588;2023-02-28T10:58:29;7.63;;;3.00;;
5608;SDS011;2826;51.354;9.588;2023-02-28T11:00:58;7.17;;;2.77;;
5608;SDS011;2826;51.354;9.588;2023-02-28T11:03:30;6.30;;;2.97;;
5608;SDS011;2826;51.354;9.588;2023-02-28T11:06:04;11.20;;;3.40;;
5608;SDS011;2826;51.354;9.588;2023-02-28T11:08:33;5.10;;;3.60;;
5608;SDS011;2826;51.354;9.588;2023-02-28T11:11:00;12.10;;;2.83;;
5608;SDS011;2826;51.354;9.588;2023-02-28T11:13:32;7.13;;;3.50;;
5608;SDS011;2826;51.354;9.588;2023-02-28T11:16:02;4.20;;;3.20;;
5608;SDS011;2826;51.354;9.588;2023-02-28T11:18:35;3.97;;;2.67;;
5608;SDS011;2826;51.354;9.588;2023-02-28T11:21:07;3.80;;;2.70;;
5608;SDS011;2826;51.354;9.588;2023-02-28T11:23:35;3.07;;;2.60;;
5608;SDS011;2826;51.354;9.588;2023-02-28T11:26:06;5.13;;;3.17;;
5608;SDS011;2826;51.354;9.588;2023-02-28T11:28:36;5.57;;;3.47;;
5608;SDS011;2826;51.354;9.588;2023-02-28T11:31:05;8.50;;;3.87;;
5608;SDS011;2826;51.354;9.588;2023-02-28T11:33:43;3.03;;;2.47;;
5608;SDS011;2826;51.354;9.588;2023-02-28T11:36:12;3.00;;;2.30;;
5608;SDS011;2826;51.354;9.588;2023-02-28T11:38:40;11.63;;;3.07;;
5608;SDS011;2826;51.354;9.588;2023-02-28T11:41:11;4.67;;;3.17;;
5608;SDS011;2826;51.354;9.588;2023-02-28T11:44:04;4.20;;;3.00;;
5608;SDS011;2826;51.354;9.588;2023-02-28T11:46:40;3.03;;;2.30;;
5608;SDS011;2826;51.354;9.588;2023-02-28T11:49:18;4.37;;;3.20;;
5608;SDS011;2826;51.354;9.588;2023-02-28T11:51:58;5.37;;;3.10;;
5608;SDS011;2826;51.354;9.588;2023-02-28T11:54:31;4.93;;;3.37;;
5608;SDS011;2826;51.354;9.588;2023-02-28T11:57:10;5.63;;;3.10;;
5608;SDS011;2826;51.354;9.588;2023-02-28T11:59:55;6.23;;;2.80;;
5608;SDS011;2826;51.354;9.588;2023-02-28T12:02:41;6.37;;;3.30;;
5608;SDS011;2826;51.354;9.588;2023-02-28T12:05:25;3.80;;;2.80;;
5608;SDS011;2826;51.354;9.588;2023-02-28T12:08:00;4.17;;;3.43;;
5608;SDS011;2826;51.354;9.588;2023-02-28T12:10:34;5.50;;;2.80;;
5608;SDS011;2826;51.354;9.588;2023-02-28T12:13:12;4.00;;;3.00;;
5608;SDS011;2826;51.354;9.588;2023-02-28T12:16:03;3.97;;;3.20;;
5608;SDS011;2826;51.354;9.588;2023-02-28T12:18:46;3.50;;;3.10;;
5608;SDS011;2826;51.354;9.588;2023-02-28T12:21:23;5.60;;;3.03;;
5608;SDS011;2826;51.354;9.588;2023-02-28T12:24:03;3.30;;;2.80;;
5608;SDS011;2826;51.354;9.588;2023-02-28T12:26:42;4.50;;;3.00;;
5608;SDS011;2826;51.354;9.588;2023-02-28T12:29:12;6.30;;;3.73;;
5608;SDS011;2826;51.354;9.588;2023-02-28T12:31:45;5.20;;;3.70;;
5608;SDS011;2826;51.354;9.588;2023-02-28T12:34:16;5.97;;;3.33;;
5608;SDS011;2826;51.354;9.588;2023-02-28T12:36:48;4.57;;;3.33;;
5608;SDS011;2826;51.354;9.588;2023-02-28T12:39:20;5.00;;;3.13;;
5608;SDS011;2826;51.354;9.588;2023-02-28T12:41:53;4.37;;;3.27;;
5608;SDS011;2826;51.354;9.588;2023-02-28T12:44:23;5.30;;;3.00;;
5608;SDS011;2826;51.354;9.588;2023-02-28T12:46:55;6.87;;;4.27;;
5608;SDS011;2826;51.354;9.588;2023-02-28T12:49:27;6.03;;;3.30;;
5608;SDS011;2826;51.354;9.588;2023-02-28T12:52:00;5.70;;;3.20;;
5608;SDS011;2826;51.354;9.588;2023-02-28T12:54:31;4.00;;;2.93;;
5608;SDS011;2826;51.354;9.588;2023-02-28T12:57:02;6.40;;;3.33;;
5608;SDS011;2826;51.354;9.588;2023-02-28T12:59:37;28.60;;;12.23;;
5608;SDS011;2826;51.354;9.588;2023-02-28T13:02:20;15.57;;;7.83;;
5608;SDS011;2826;51.354;9.588;2023-02-28T13:08:10;6.70;;;3.90;;
5608;SDS011;2826;51.354;9.588;2023-02-28T13:11:00;9.83;;;3.60;;
5608;SDS011;2826;51.354;9.588;2023-02-28T13:13:28;5.93;;;3.60;;
5608;SDS011;2826;51.354;9.588;2023-02-28T13:16:01;6.83;;;3.60;;
5608;SDS011;2826;51.354;9.588;2023-02-28T13:18:31;3.40;;;3.10;;
5608;SDS011;2826;51.354;9.588;2023-02-28T13:21:01;5.20;;;3.53;;
5608;SDS011;2826;51.354;9.588;2023-02-28T13:29:29;6.17;;;3.87;;
5608;SDS011;2826;51.354;9.588;2023-02-28T13:35:14;7.30;;;3.57;;
5608;SDS011;2826;51.354;9.588;2023-02-28T13:40:52;6.53;;;4.20;;
5608;SDS011;2826;51.354;9.588;2023-02-28T13:43:18;8.10;;;4.40;;
5608;SDS011;2826;51.354;9.588;2023-02-28T13:48:35;5.17;;;3.70;;
5608;SDS011;2826;51.354;9.588;2023-02-28T13:54:09;5.50;;;3.97;;
5608;SDS011;2826;51.354;9.588;2023-02-28T13:56:50;11.03;;;5.30;;
5608;SDS011;2826;51.354;9.588;2023-02-28T13:59:29;4.97;;;4.03;;
5608;SDS011;2826;51.354;9.588;2023-02-28T14:02:11;5.47;;;3.80;;
5608;SDS011;2826;51.354;9.588;2023-02-28T14:05:00;10.13;;;4.10;;
5608;SDS011;2826;51.354;9.588;2023-02-28T14:07:29;6.63;;;3.97;;
5608;SDS011;2826;51.354;9.588;2023-02-28T14:10:01;5.60;;;3.70;;
5608;SDS011;2826;51.354;9.588;2023-02-28T14:15:39;4.17;;;3.43;;
5608;SDS011;2826;51.354;9.588;2023-02-28T14:18:26;4.30;;;3.37;;
5608;SDS011;2826;51.354;9.588;2023-02-28T14:20:57;6.77;;;3.97;;
5608;SDS011;2826;51.354;9.588;2023-02-28T14:23:38;8.60;;;4.37;;
5608;SDS011;2826;51.354;9.588;2023-02-28T14:26:26;5.50;;;4.17;;
5608;SDS011;2826;51.354;9.588;2023-02-28T14:29:08;7.43;;;4.00;;
5608;SDS011;2826;51.354;9.588;2023-02-28T14:31:50;6.57;;;3.10;;
5608;SDS011;2826;51.354;9.588;2023-02-28T14:34:33;8.40;;;4.27;;
5608;SDS011;2826;51.354;9.588;2023-02-28T14:37:05;7.20;;;4.00;;
5608;SDS011;2826;51.354;9.588;2023-02-28T14:39:33;9.73;;;4.20;;
5608;SDS011;2826;51.354;9.588;2023-02-28T14:42:00;5.50;;;4.00;;
5608;SDS011;2826;51.354;9.588;2023-02-28T14:44:31;6.27;;;4.47;;
5608;SDS011;2826;51.354;9.588;2023-02-28T14:46:59;6.60;;;4.47;;
5608;SDS011;2826;51.354;9.588;2023-02-28T14:49:30;8.00;;;5.00;;
5608;SDS011;2826;51.354;9.588;2023-02-28T14:52:02;5.80;;;4.20;;
5608;SDS011;2826;51.354;9.588;2023-02-28T14:54:34;7.97;;;4.10;;
5608;SDS011;2826;51.354;9.588;2023-02-28T14:57:01;5.37;;;4.20;;
5608;SDS011;2826;51.354;9.588;2023-02-28T14:59:29;8.93;;;4.73;;
5608;SDS011;2826;51.354;9.588;2023-02-28T15:02:19;7.50;;;5.10;;
5608;SDS011;2826;51.354;9.588;2023-02-28T15:04:54;5.43;;;4.00;;
5608;SDS011;2826;51.354;9.588;2023-02-28T15:07:22;4.90;;;3.47;;
5608;SDS011;2826;51.354;9.588;2023-02-28T15:10:09;7.53;;;4.90;;
5608;SDS011;2826;51.354;9.588;2023-02-28T15:12:39;6.20;;;4.40;;
5608;SDS011;2826;51.354;9.588;2023-02-28T15:15:14;7.03;;;4.60;;
5608;SDS011;2826;51.354;9.588;2023-02-28T15:17:43;8.67;;;4.10;;
5608;SDS011;2826;51.354;9.588;2023-02-28T15:20:12;6.20;;;4.37;;
5608;SDS011;2826;51.354;9.588;2023-02-28T15:22:41;6.17;;;3.57;;
5608;SDS011;2826;51.354;9.588;2023-02-28T15:25:09;7.07;;;4.30;;
5608;SDS011;2826;51.354;9.588;2023-02-28T15:27:41;7.77;;;4.40;;
5608;SDS011;2826;51.354;9.588;2023-02-28T15:30:14;8.10;;;4.67;;
5608;SDS011;2826;51.354;9.588;2023-02-28T15:32:44;5.70;;;4.60;;
5608;SDS011;2826;51.354;9.588;2023-02-28T15:35:18;7.83;;;4.10;;
5608;SDS011;2826;51.354;9.588;2023-02-28T15:37:47;8.53;;;4.40;;
5608;SDS011;2826;51.354;9.588;2023-02-28T15:40:25;8.03;;;4.40;;
5608;SDS011;2826;51.354;9.588;2023-02-28T15:42:57;6.60;;;4.20;;
5608;SDS011;2826;51.354;9.588;2023-02-28T15:45:30;8.10;;;4.13;;
5608;SDS011;2826;51.354;9.588;2023-02-28T15:48:04;5.20;;;3.90;;
5608;SDS011;2826;51.354;9.588;2023-02-28T15:50:34;5.73;;;4.43;;
5608;SDS011;2826;51.354;9.588;2023-02-28T15:53:01;7.40;;;4.03;;
5608;SDS011;2826;51.354;9.588;2023-02-28T15:55:29;7.40;;;4.80;;
5608;SDS011;2826;51.354;9.588;2023-02-28T15:57:56;8.70;;;4.70;;
5608;SDS011;2826;51.354;9.588;2023-02-28T16:00:27;5.60;;;3.60;;
5608;SDS011;2826;51.354;9.588;2023-02-28T16:02:58;7.07;;;4.60;;